Aérodrome :







RETROUVEZ-NOUS SUR...

 
LOGIN :

S'inscrire | Disclaimer

   EN    FR    IT 

 









Légende :    VFR   VFR Marginal   IFR   IFR Intensif   IFR Très Intensif
Visi : 
Plafond : 
>= 8 km
>= 3000ft
5 à 8 km
1000 à 3000 ft
1500m à 5 km
500 à 1000 ft
800 à 1500m
200 à 500 ft
< 800m
< 200 ft
Symboles :   Orages  Brouillard  Fortes neiges  Fortes précipitations  Vent > 20 kt






- Altitude de l'aérodrome : 23 ft
- Code IATA : STT


TIST - King

DERNIER METAR :
  • 270153Z AUTO 07009G17KT 10SM CLR 24/18 A3005 RMK AO2 SLP175 T02440183

METARs EXPIRÉS :
  • 270053Z 06014KT 10SM SCT075 25/19 A3004 RMK AO2 SLP172 T02500189
  • 262353Z 06018G22KT 10SM CLR 25/19 A3002 RMK AO2 SLP167 T02500189 10283 20250 53007

TAF TIST
Valide du 27 à 00h jusqu'au 28 à 00h UTC


262337Z 2700/2724 05014G21KT P6SM VCSH FEW035 SCT060
FM270400 05006KT P6SM FEW035
FM271500 10010KT P6SM FEW030
FM272100 07007KT P6SM FEW030



MET'MAP, la Météo Aéronautique d'un coup d'oeil ! - Copyright ORBIFLY Décembre 2007 - Disclaimer

ORBIFLY MET'MAP TEAM :

Programmation & Développement : Alexandra Zaïnal
Sur une idée originale de : Baudouin d'Aumeries
Assistance à la programmation : Marc-Olivier Méhu
Soutien technique & logistique : Manuel Goepfert

Contact : metmap@orbifly.com




SOURCES & CREDITS :

   NOAA